Time;durP1;ratioP1;P1;durP2;ratioP2;P2;SDS_P1;SDS_P2;PMS_P1;PMS_P2;Temp;Humidity;BMP_temperature;BMP_pressure;BME280_temperature;BME280_humidity;BME280_pressure;Samples;Min_cycle;Max_cycle;Signal;HPM_P1;HPM_P2
2021/11/13 00:00:46;;;;;;;27.33;15.82;;;5.10;99.90;;;;;;5032483;28;20033;-83
2021/11/13 00:03:13;;;;;;;26.73;15.45;;;5.10;99.90;;;;;;5032218;28;20911;-82
2021/11/13 00:05:42;;;;;;;26.42;15.70;;;5.10;99.90;;;;;;5031855;28;20064;-82
2021/11/13 00:08:08;;;;;;;26.20;15.00;;;5.00;99.90;;;;;;5031370;28;20030;-81
2021/11/13 00:10:34;;;;;;;26.30;15.13;;;4.90;99.90;;;;;;5031758;28;20389;-81
2021/11/13 00:13:01;;;;;;;24.27;15.52;;;4.90;99.90;;;;;;5031915;28;20035;-81
2021/11/13 00:15:28;;;;;;;25.55;14.82;;;4.90;99.90;;;;;;5032485;28;20033;-81
2021/11/13 00:17:54;;;;;;;24.25;15.15;;;4.90;99.90;;;;;;5031743;28;20033;-80
2021/11/13 00:20:22;;;;;;;21.88;14.70;;;4.80;99.90;;;;;;5032044;28;20500;-81
2021/11/13 00:22:48;;;;;;;25.50;14.00;;;4.80;99.90;;;;;;5032148;28;20025;-80
2021/11/13 00:25:14;;;;;;;25.50;14.13;;;4.80;99.90;;;;;;5031560;28;20072;-81
2021/11/13 00:27:42;;;;;;;20.55;12.93;;;4.80;99.90;;;;;;5030524;28;20029;-81
2021/11/13 00:30:09;;;;;;;20.75;13.18;;;4.80;99.90;;;;;;5032194;28;20108;-81
2021/11/13 00:32:34;;;;;;;22.77;14.73;;;4.90;99.90;;;;;;5031112;28;20029;-81
2021/11/13 00:35:00;;;;;;;24.65;14.68;;;4.80;99.90;;;;;;5030909;28;20025;-81
2021/11/13 00:37:28;;;;;;;24.83;15.10;;;4.80;99.90;;;;;;5031795;28;20045;-81
2021/11/13 00:39:54;;;;;;;25.25;14.43;;;4.80;99.90;;;;;;5031565;28;20109;-81
2021/11/13 00:42:19;;;;;;;22.15;13.93;;;4.80;99.90;;;;;;5031592;28;20117;-81
2021/11/13 00:44:46;;;;;;;20.35;13.35;;;4.80;99.90;;;;;;5031587;28;20037;-81
2021/11/13 00:47:11;;;;;;;18.42;12.43;;;4.80;99.90;;;;;;5030605;28;20033;-81
2021/11/13 00:49:37;;;;;;;21.92;13.32;;;4.80;99.90;;;;;;5031430;28;20044;-81
2021/11/13 00:52:03;;;;;;;22.20;11.45;;;4.80;99.90;;;;;;5031603;28;20115;-81
2021/11/13 00:54:30;;;;;;;18.70;12.57;;;4.80;99.90;;;;;;5031793;28;20029;-81
2021/11/13 00:56:56;;;;;;;22.40;12.50;;;4.80;99.90;;;;;;5031713;28;20121;-81
2021/11/13 00:59:22;;;;;;;18.38;11.77;;;4.90;99.90;;;;;;5025119;28;20026;-82
2021/11/13 01:01:48;;;;;;;20.33;12.10;;;4.80;99.90;;;;;;5028477;28;20367;-82
2021/11/13 01:04:14;;;;;;;19.67;12.40;;;4.90;99.90;;;;;;5031091;28;20461;-81
2021/11/13 01:06:39;;;;;;;20.33;11.38;;;4.80;99.90;;;;;;5030210;28;20141;-81
2021/11/13 01:09:05;;;;;;;19.60;11.88;;;4.80;99.90;;;;;;5029390;28;20048;-81
2021/11/13 01:11:31;;;;;;;20.10;12.40;;;4.90;99.90;;;;;;5031271;28;20052;-82
2021/11/13 01:13:57;;;;;;;18.38;12.25;;;4.90;99.90;;;;;;5031103;28;20033;-81
2021/11/13 01:16:24;;;;;;;20.15;12.82;;;4.90;99.90;;;;;;5030311;28;20033;-81
2021/11/13 01:18:50;;;;;;;21.88;12.00;;;4.80;99.90;;;;;;5030551;28;20061;-82
2021/11/13 01:21:16;;;;;;;19.50;12.88;;;4.80;99.90;;;;;;5028997;28;20040;-81
2021/11/13 01:23:45;;;;;;;18.45;12.55;;;4.80;99.90;;;;;;5031141;28;20033;-81
2021/11/13 01:26:10;;;;;;;18.52;11.70;;;4.80;99.90;;;;;;5030866;28;20041;-81
2021/11/13 01:28:36;;;;;;;19.30;11.25;;;4.80;99.90;;;;;;5030373;28;20038;-81
2021/11/13 01:31:02;;;;;;;19.63;13.57;;;4.80;99.90;;;;;;5031123;28;20099;-81
2021/11/13 01:33:27;;;;;;;19.48;12.55;;;4.80;99.90;;;;;;5032896;28;20026;-81
2021/11/13 01:35:53;;;;;;;20.92;12.98;;;4.80;99.90;;;;;;5031165;28;20034;-82
2021/11/13 01:38:19;;;;;;;23.15;13.40;;;4.80;99.90;;;;;;5031457;28;20035;-81
2021/11/13 01:40:45;;;;;;;20.00;12.43;;;4.80;99.90;;;;;;5031121;28;20033;-81
2021/11/13 01:43:11;;;;;;;20.45;12.30;;;4.90;99.90;;;;;;5030799;28;20033;-81
2021/11/13 01:45:37;;;;;;;20.25;12.50;;;4.80;99.90;;;;;;5030784;28;20470;-82
2021/11/13 01:48:03;;;;;;;21.90;12.60;;;4.90;99.90;;;;;;5029731;28;20026;-82
2021/11/13 01:50:39;;;;;;;20.65;12.50;;;5.00;99.90;;;;;;5030806;28;20029;-82
2021/11/13 01:53:05;;;;;;;19.17;12.07;;;5.00;99.90;;;;;;5030298;28;20041;-81
2021/11/13 01:55:35;;;;;;;22.38;13.57;;;5.00;99.90;;;;;;5030128;28;20033;-81
2021/11/13 01:58:02;;;;;;;20.42;12.75;;;5.00;99.90;;;;;;5029928;28;20107;-82
2021/11/13 02:00:31;;;;;;;21.65;12.85;;;5.10;99.90;;;;;;5033190;28;20014;-82
2021/11/13 02:02:57;;;;;;;18.98;13.50;;;5.10;99.90;;;;;;5030245;28;20060;-81
2021/11/13 02:05:23;;;;;;;20.05;11.55;;;5.20;99.90;;;;;;5029875;28;20041;-82
2021/11/13 02:07:48;;;;;;;21.15;12.98;;;5.10;99.90;;;;;;5029262;28;20037;-82
2021/11/13 02:10:15;;;;;;;21.15;12.95;;;5.20;99.90;;;;;;5030102;28;20037;-82
2021/11/13 02:12:41;;;;;;;24.50;13.52;;;5.20;99.90;;;;;;5030384;28;20029;-82
2021/11/13 02:15:08;;;;;;;21.42;12.55;;;5.20;99.90;;;;;;5030010;28;20037;-82
2021/11/13 02:17:33;;;;;;;21.90;12.57;;;5.30;99.90;;;;;;5028072;28;20042;-82
2021/11/13 02:20:22;;;;;;;20.13;12.25;;;5.30;99.90;;;;;;5028589;28;20449;-81
2021/11/13 02:22:49;;;;;;;24.45;13.68;;;5.40;99.90;;;;;;5029665;28;20037;-81
2021/11/13 02:25:16;;;;;;;22.10;12.30;;;5.40;99.90;;;;;;5029708;28;20049;-82
2021/11/13 02:27:43;;;;;;;20.08;11.88;;;5.40;99.90;;;;;;5029458;28;20025;-82
2021/11/13 02:30:09;;;;;;;23.80;12.88;;;5.50;99.90;;;;;;5029709;28;20033;-82
2021/11/13 02:32:35;;;;;;;19.10;11.95;;;5.50;99.90;;;;;;5030196;28;20028;-82
2021/11/13 02:35:01;;;;;;;22.50;12.07;;;5.50;99.90;;;;;;5029214;28;20072;-82
2021/11/13 02:37:28;;;;;;;23.25;12.57;;;5.60;99.90;;;;;;5029100;28;20490;-81
2021/11/13 02:39:54;;;;;;;28.60;13.40;;;5.60;99.90;;;;;;5028329;28;20120;-81
2021/11/13 02:42:22;;;;;;;21.23;12.20;;;5.70;99.90;;;;;;5029686;28;20113;-81
2021/11/13 02:44:50;;;;;;;19.60;12.60;;;5.70;99.90;;;;;;5029615;28;20429;-81
2021/11/13 02:47:16;;;;;;;21.48;12.43;;;5.70;99.90;;;;;;5028225;28;20470;-82
2021/11/13 02:49:43;;;;;;;22.05;12.75;;;5.70;99.90;;;;;;5029256;28;20075;-82
2021/11/13 02:52:08;;;;;;;21.63;10.80;;;5.80;99.90;;;;;;5029005;28;20022;-82
2021/11/13 02:54:34;;;;;;;21.10;12.43;;;5.80;99.90;;;;;;5030175;28;20108;-82
2021/11/13 02:56:59;;;;;;;18.88;12.18;;;5.80;99.90;;;;;;5026598;28;20034;-82
2021/11/13 02:59:25;;;;;;;20.35;12.55;;;5.90;99.90;;;;;;5009528;28;20034;-82
2021/11/13 03:01:50;;;;;;;19.33;12.70;;;5.90;99.90;;;;;;5010039;28;20390;-82
2021/11/13 03:04:17;;;;;;;22.15;12.43;;;5.90;99.90;;;;;;5009712;28;20089;-82
2021/11/13 03:06:43;;;;;;;16.10;10.98;;;5.90;99.90;;;;;;5024598;28;20430;-82
2021/11/13 03:09:09;;;;;;;18.98;12.10;;;6.00;99.90;;;;;;5008494;28;20033;-82
2021/11/13 03:11:34;;;;;;;20.30;11.18;;;6.00;99.90;;;;;;5009704;28;20080;-82
2021/11/13 03:13:59;;;;;;;19.00;10.20;;;6.00;99.90;;;;;;5009744;28;20472;-82
2021/11/13 03:16:25;;;;;;;15.68;10.27;;;6.00;99.90;;;;;;5021858;28;20044;-82
2021/11/13 03:18:51;;;;;;;16.33;10.13;;;6.00;99.90;;;;;;5029608;28;20037;-82
2021/11/13 03:21:16;;;;;;;17.60;11.25;;;6.10;99.90;;;;;;5028747;28;20037;-82
2021/11/13 03:23:45;;;;;;;17.80;9.60;;;6.10;99.90;;;;;;5030622;28;20209;-81
2021/11/13 03:26:21;;;;;;;14.90;10.18;;;6.10;99.90;;;;;;5033100;28;20045;-82
2021/11/13 03:28:51;;;;;;;18.38;9.85;;;6.10;99.90;;;;;;5038789;28;20227;-81
2021/11/13 03:31:17;;;;;;;14.48;9.48;;;6.20;99.90;;;;;;5044538;28;20084;-82
2021/11/13 03:33:43;;;;;;;18.30;9.60;;;6.20;99.90;;;;;;5045353;28;20025;-81
2021/11/13 03:36:09;;;;;;;13.73;9.13;;;6.20;99.90;;;;;;5046073;28;20322;-81
2021/11/13 03:38:37;;;;;;;12.45;9.48;;;6.20;99.90;;;;;;5040561;28;20034;-82
2021/11/13 03:41:03;;;;;;;17.13;9.88;;;6.20;99.90;;;;;;5032929;28;20033;-82
2021/11/13 03:43:28;;;;;;;12.32;8.25;;;6.20;99.90;;;;;;5032129;28;20425;-82
2021/11/13 03:45:54;;;;;;;12.82;8.82;;;6.20;99.90;;;;;;5033226;28;20426;-82
2021/11/13 03:48:19;;;;;;;11.75;8.57;;;6.30;99.90;;;;;;5032393;28;20136;-82
2021/11/13 03:50:47;;;;;;;12.65;8.05;;;6.30;99.90;;;;;;5032182;28;20045;-82
2021/11/13 03:53:12;;;;;;;13.20;9.32;;;6.30;99.90;;;;;;5032822;28;20116;-82
2021/11/13 03:55:38;;;;;;;13.45;9.38;;;6.30;99.90;;;;;;5032711;28;20204;-82
2021/11/13 03:58:04;;;;;;;17.08;8.88;;;6.40;99.90;;;;;;5031846;28;20025;-82
2021/11/13 04:00:30;;;;;;;15.02;9.82;;;6.40;99.90;;;;;;5032466;28;20030;-82
2021/11/13 04:02:56;;;;;;;15.40;9.45;;;6.50;99.90;;;;;;5032393;28;20030;-82
2021/11/13 04:05:22;;;;;;;14.40;8.73;;;6.50;99.90;;;;;;5031314;28;20500;-82
2021/11/13 04:07:49;;;;;;;18.38;8.95;;;6.40;99.90;;;;;;5031671;28;20410;-82
2021/11/13 04:10:16;;;;;;;13.10;8.68;;;6.50;99.90;;;;;;5032256;28;20401;-82
2021/11/13 04:12:42;;;;;;;14.70;9.07;;;6.50;99.90;;;;;;5032477;28;20025;-82
2021/11/13 04:15:10;;;;;;;12.63;8.95;;;6.50;99.90;;;;;;5032697;28;20033;-82
2021/11/13 04:17:35;;;;;;;13.88;8.82;;;6.50;99.90;;;;;;5032190;28;20049;-81
2021/11/13 04:20:01;;;;;;;13.55;9.02;;;6.50;99.90;;;;;;5032001;28;20029;-82
2021/11/13 04:22:27;;;;;;;13.07;8.18;;;6.50;99.90;;;;;;5032016;28;20023;-82
2021/11/13 04:24:52;;;;;;;14.63;9.32;;;6.50;99.90;;;;;;5031933;28;20116;-81
2021/11/13 04:27:18;;;;;;;11.95;8.50;;;6.50;99.90;;;;;;5031548;28;20494;-81
2021/11/13 04:29:45;;;;;;;10.98;7.72;;;6.50;99.90;;;;;;5030233;28;20029;-82
2021/11/13 04:32:11;;;;;;;11.68;7.50;;;6.50;99.90;;;;;;5031794;28;20478;-82
2021/11/13 04:34:49;;;;;;;14.68;9.05;;;6.50;99.90;;;;;;5032258;28;20030;-81
2021/11/13 04:37:18;;;;;;;12.73;7.82;;;6.40;99.90;;;;;;5030404;28;20065;-82
2021/11/13 04:39:48;;;;;;;12.45;8.35;;;6.40;99.90;;;;;;5031817;28;20383;-82
2021/11/13 04:42:15;;;;;;;13.07;8.07;;;6.40;99.90;;;;;;5029721;28;20041;-82
2021/11/13 04:44:41;;;;;;;13.02;8.02;;;6.40;99.90;;;;;;5032199;28;20032;-82
2021/11/13 04:47:07;;;;;;;12.82;8.80;;;6.40;99.90;;;;;;5031544;28;20394;-82
2021/11/13 04:49:33;;;;;;;13.90;8.35;;;6.30;99.90;;;;;;5031558;28;20096;-82
2021/11/13 04:52:00;;;;;;;13.52;9.15;;;6.40;99.90;;;;;;5031153;28;20033;-82
2021/11/13 04:54:26;;;;;;;16.65;8.82;;;6.30;99.90;;;;;;5030454;28;20034;-82
2021/11/13 04:56:53;;;;;;;12.10;8.85;;;6.30;99.90;;;;;;5031619;28;20025;-82
2021/11/13 04:59:19;;;;;;;15.55;8.13;;;6.30;99.90;;;;;;5030665;28;20028;-82
2021/11/13 05:01:44;;;;;;;13.90;7.88;;;6.30;99.90;;;;;;5029809;28;20113;-82
2021/11/13 05:04:10;;;;;;;11.75;8.55;;;6.30;99.90;;;;;;5031527;28;20035;-82
2021/11/13 05:06:35;;;;;;;15.23;8.48;;;6.30;99.90;;;;;;5031175;28;20079;-82
2021/11/13 05:09:01;;;;;;;14.00;8.38;;;6.30;99.90;;;;;;5030190;28;20113;-82
2021/11/13 05:11:26;;;;;;;13.13;8.75;;;6.30;99.90;;;;;;5033651;28;20107;-82
2021/11/13 05:13:52;;;;;;;13.93;7.70;;;6.30;99.90;;;;;;5034855;28;20021;-82
2021/11/13 05:16:18;;;;;;;12.18;8.18;;;6.30;99.90;;;;;;5031472;28;20412;-82
2021/11/13 05:18:44;;;;;;;14.65;8.68;;;6.30;99.90;;;;;;5031124;28;20474;-82
2021/11/13 05:21:09;;;;;;;14.50;8.27;;;6.30;99.90;;;;;;5030614;28;20033;-82
2021/11/13 05:23:35;;;;;;;12.05;8.13;;;6.30;99.90;;;;;;5031338;28;20531;-82
2021/11/13 05:26:00;;;;;;;12.07;7.88;;;6.30;99.90;;;;;;5031463;28;20033;-82
2021/11/13 05:28:26;;;;;;;15.05;8.80;;;6.30;99.90;;;;;;5030211;28;20437;-82
2021/11/13 05:30:52;;;;;;;12.32;7.88;;;6.30;99.90;;;;;;5029363;28;20477;-82
2021/11/13 05:33:17;;;;;;;14.00;8.57;;;6.30;99.90;;;;;;5030981;28;20026;-82
2021/11/13 05:35:43;;;;;;;11.82;8.27;;;6.30;99.90;;;;;;5030754;28;20025;-82
2021/11/13 05:38:08;;;;;;;12.18;7.88;;;6.30;99.90;;;;;;5029841;28;20029;-82
2021/11/13 05:40:34;;;;;;;11.48;7.70;;;6.30;99.90;;;;;;5030733;28;20092;-82
2021/11/13 05:42:59;;;;;;;11.65;7.90;;;6.30;99.90;;;;;;5029158;28;20088;-82
2021/11/13 05:45:25;;;;;;;11.13;7.70;;;6.40;99.90;;;;;;5029235;28;20028;-82
2021/11/13 05:47:51;;;;;;;10.98;7.38;;;6.30;99.90;;;;;;5028705;28;20386;-82
2021/11/13 05:50:19;;;;;;;14.50;7.82;;;6.30;99.90;;;;;;5030479;28;20036;-82
2021/11/13 05:52:47;;;;;;;9.57;7.05;;;6.40;99.90;;;;;;5029866;28;20108;-82
2021/11/13 05:55:14;;;;;;;11.38;7.63;;;6.40;99.90;;;;;;5028905;28;20030;-81
2021/11/13 05:57:40;;;;;;;12.57;7.85;;;6.50;99.90;;;;;;5028957;28;20056;-82
2021/11/13 06:00:16;;;;;;;13.70;6.93;;;6.50;99.90;;;;;;5028750;28;20034;-82
2021/11/13 06:02:41;;;;;;;11.00;7.35;;;6.50;99.90;;;;;;5030372;28;20031;-82
2021/11/13 06:05:08;;;;;;;10.48;6.97;;;6.60;99.90;;;;;;5030074;28;20026;-82
2021/11/13 06:07:33;;;;;;;9.32;6.55;;;6.60;99.90;;;;;;5028804;28;20036;-82
2021/11/13 06:09:59;;;;;;;11.35;7.38;;;6.70;99.90;;;;;;5028626;28;20494;-82
2021/11/13 06:12:24;;;;;;;11.60;6.82;;;6.70;99.90;;;;;;5030374;28;20033;-81
2021/11/13 06:14:50;;;;;;;9.05;6.72;;;6.80;99.90;;;;;;5030078;28;20033;-82
2021/11/13 06:17:16;;;;;;;8.77;6.03;;;6.70;99.90;;;;;;5029831;28;20385;-82
2021/11/13 06:19:42;;;;;;;11.00;7.18;;;6.80;99.90;;;;;;5029234;28;20088;-82
2021/11/13 06:22:07;;;;;;;9.35;6.40;;;6.80;99.90;;;;;;5028886;28;20025;-81
2021/11/13 06:24:33;;;;;;;10.85;6.97;;;6.80;99.90;;;;;;5030231;28;20045;-81
2021/11/13 06:26:59;;;;;;;7.68;5.63;;;6.90;99.90;;;;;;5029614;28;20037;-82
2021/11/13 06:29:24;;;;;;;14.95;7.15;;;6.90;99.90;;;;;;5028803;28;20045;-82
2021/11/13 06:31:50;;;;;;;8.45;6.18;;;6.90;99.90;;;;;;5029600;28;20047;-82
2021/11/13 06:34:16;;;;;;;10.55;6.47;;;7.00;99.90;;;;;;5029171;28;20037;-82
2021/11/13 06:36:41;;;;;;;9.43;6.30;;;7.00;99.90;;;;;;5030160;28;20025;-82
2021/11/13 06:39:07;;;;;;;8.18;5.80;;;7.00;99.90;;;;;;5029344;28;20041;-82
2021/11/13 06:41:33;;;;;;;8.25;6.38;;;7.10;99.90;;;;;;5029408;28;20409;-82
2021/11/13 06:43:59;;;;;;;8.18;6.20;;;7.00;99.90;;;;;;5029720;28;20026;-82
2021/11/13 06:46:25;;;;;;;9.60;6.45;;;7.10;99.90;;;;;;5028563;28;20033;-82
2021/11/13 06:48:51;;;;;;;9.00;6.85;;;7.10;99.90;;;;;;5029119;28;20052;-82
2021/11/13 06:51:17;;;;;;;10.00;6.25;;;7.10;99.90;;;;;;5028607;28;20034;-82
2021/11/13 06:53:43;;;;;;;10.27;6.35;;;7.10;99.90;;;;;;5029918;28;20097;-82
2021/11/13 06:56:09;;;;;;;8.18;6.18;;;7.20;99.90;;;;;;5029749;28;20030;-83
2021/11/13 06:58:35;;;;;;;9.18;6.25;;;7.10;99.90;;;;;;5027463;28;20544;-83
2021/11/13 07:01:00;;;;;;;12.05;7.00;;;7.20;99.90;;;;;;5029454;28;20029;-82
2021/11/13 07:03:26;;;;;;;7.97;6.00;;;7.20;99.90;;;;;;5027896;28;20034;-83
2021/11/13 07:05:52;;;;;;;8.80;7.05;;;7.20;99.90;;;;;;5029412;28;20100;-83
2021/11/13 07:08:17;;;;;;;6.82;5.95;;;7.20;99.90;;;;;;5028426;28;20049;-82
2021/11/13 07:10:43;;;;;;;8.43;6.15;;;7.20;99.90;;;;;;5027646;28;20049;-81
2021/11/13 07:13:08;;;;;;;9.48;6.35;;;7.30;99.90;;;;;;5029064;28;20429;-83
2021/11/13 07:15:34;;;;;;;9.65;6.15;;;7.30;99.90;;;;;;5029937;28;20025;-82
2021/11/13 07:18:02;;;;;;;9.18;6.63;;;7.30;99.90;;;;;;5028932;28;20925;-83
2021/11/13 07:20:29;;;;;;;9.32;6.78;;;7.30;99.90;;;;;;5027763;28;20568;-82
2021/11/13 07:22:56;;;;;;;9.85;6.88;;;7.30;99.90;;;;;;5027771;28;20037;-83
2021/11/13 07:25:22;;;;;;;9.07;5.82;;;7.40;99.90;;;;;;5029527;28;20026;-83
2021/11/13 07:27:48;;;;;;;9.32;6.47;;;7.40;99.90;;;;;;5028478;28;20517;-83
2021/11/13 07:30:18;;;;;;;7.72;5.78;;;7.40;99.90;;;;;;5029022;28;20426;-84
2021/11/13 07:32:44;;;;;;;9.15;6.88;;;7.40;99.90;;;;;;5029055;28;20111;-83
2021/11/13 07:35:10;;;;;;;10.98;6.60;;;7.50;99.90;;;;;;5027886;28;20096;-83
2021/11/13 07:37:35;;;;;;;10.35;7.45;;;7.50;99.90;;;;;;5029109;28;20494;-83
2021/11/13 07:40:01;;;;;;;10.05;7.32;;;7.60;99.90;;;;;;5028895;28;20025;-83
2021/11/13 07:42:26;;;;;;;12.45;7.75;;;7.60;99.90;;;;;;5029103;28;20025;-83
2021/11/13 07:44:52;;;;;;;11.15;7.70;;;7.60;99.90;;;;;;5030191;28;20048;-83
2021/11/13 07:47:18;;;;;;;11.73;8.27;;;7.60;99.90;;;;;;5030921;28;20048;-83
2021/11/13 07:49:43;;;;;;;10.80;7.70;;;7.70;99.90;;;;;;5027717;28;20479;-83
2021/11/13 07:52:09;;;;;;;9.80;6.85;;;7.70;99.90;;;;;;5028946;28;20116;-83
2021/11/13 07:54:35;;;;;;;9.32;6.57;;;7.80;99.90;;;;;;5027467;28;20029;-83
2021/11/13 07:57:00;;;;;;;8.18;5.95;;;7.80;99.90;;;;;;5027609;28;20029;-84
2021/11/13 07:59:26;;;;;;;10.23;7.18;;;7.80;99.90;;;;;;5028332;28;20063;-84
2021/11/13 08:01:52;;;;;;;10.52;7.28;;;7.70;99.90;;;;;;5028328;28;20041;-83
2021/11/13 08:04:17;;;;;;;9.23;6.07;;;7.70;99.90;;;;;;5028630;28;20035;-84
2021/11/13 08:06:43;;;;;;;8.40;6.13;;;7.70;99.90;;;;;;5027559;28;20025;-84
2021/11/13 08:09:08;;;;;;;8.73;5.97;;;7.80;99.90;;;;;;5027499;28;20033;-83
2021/11/13 08:11:34;;;;;;;8.15;5.78;;;7.80;99.90;;;;;;5032254;28;20094;-84
2021/11/13 08:13:59;;;;;;;8.82;6.55;;;7.80;99.90;;;;;;5032311;28;20029;-83
2021/11/13 08:16:25;;;;;;;8.52;6.28;;;7.80;99.90;;;;;;5032731;28;20032;-83
2021/11/13 08:18:51;;;;;;;9.48;5.97;;;7.80;99.90;;;;;;5030684;28;20052;-83
2021/11/13 08:21:16;;;;;;;8.75;5.90;;;7.90;99.90;;;;;;5031612;28;20045;-83
2021/11/13 08:23:42;;;;;;;8.45;6.57;;;7.90;99.90;;;;;;5039461;28;20045;-82
2021/11/13 08:26:09;;;;;;;9.45;6.38;;;7.90;99.90;;;;;;5049265;28;20470;-83
2021/11/13 08:28:34;;;;;;;7.80;6.18;;;7.80;99.90;;;;;;5032005;28;20583;-84
2021/11/13 08:31:00;;;;;;;8.32;5.80;;;7.90;99.90;;;;;;5032554;28;20514;-84
2021/11/13 08:33:28;;;;;;;8.20;5.82;;;7.80;99.90;;;;;;5032155;28;20037;-84
2021/11/13 08:35:54;;;;;;;9.90;6.95;;;7.90;99.90;;;;;;5031520;28;20036;-85
2021/11/13 08:38:22;;;;;;;7.80;6.03;;;7.90;99.90;;;;;;5031331;28;20132;-85
2021/11/13 08:40:49;;;;;;;9.10;6.78;;;7.90;99.90;;;;;;5031794;28;20509;-84
2021/11/13 08:43:16;;;;;;;9.20;6.32;;;8.00;99.90;;;;;;5030440;28;20457;-84
2021/11/13 08:45:42;;;;;;;12.00;6.25;;;7.90;99.90;;;;;;5030837;28;20026;-84
2021/11/13 08:48:08;;;;;;;9.32;6.75;;;8.00;99.90;;;;;;5031371;28;20034;-84
2021/11/13 08:50:34;;;;;;;10.20;6.88;;;7.90;99.90;;;;;;5032228;28;20474;-83
2021/11/13 08:53:02;;;;;;;10.18;6.88;;;7.90;99.90;;;;;;5030569;28;20021;-84
2021/11/13 08:55:29;;;;;;;8.38;6.32;;;8.00;99.90;;;;;;5030287;28;20140;-84
2021/11/13 08:57:55;;;;;;;10.65;6.25;;;8.00;99.90;;;;;;5031186;28;20072;-83
2021/11/13 09:00:29;;;;;;;8.38;6.75;;;8.00;99.90;;;;;;5031397;28;20033;-84
2021/11/13 09:02:57;;;;;;;8.38;6.28;;;8.00;99.90;;;;;;5031668;28;20035;-84
2021/11/13 09:05:24;;;;;;;8.82;6.35;;;8.10;99.90;;;;;;5029910;28;20033;-84
2021/11/13 09:07:49;;;;;;;8.82;7.47;;;8.20;99.90;;;;;;5031017;28;20033;-84
2021/11/13 09:10:15;;;;;;;7.80;6.40;;;8.20;99.90;;;;;;5029987;28;20485;-84
2021/11/13 09:12:41;;;;;;;9.50;6.95;;;8.30;99.90;;;;;;5031612;28;20466;-83
2021/11/13 09:15:11;;;;;;;9.25;6.40;;;8.40;99.90;;;;;;5031615;28;20064;-83
2021/11/13 09:17:37;;;;;;;8.90;6.35;;;8.40;99.90;;;;;;5031419;28;20496;-83
2021/11/13 09:20:04;;;;;;;7.68;5.90;;;8.50;99.90;;;;;;5030219;28;20029;-84
2021/11/13 09:22:29;;;;;;;10.43;6.88;;;8.60;99.90;;;;;;5030676;28;20029;-84
2021/11/13 09:24:55;;;;;;;8.40;6.10;;;8.60;99.90;;;;;;5029411;28;20076;-84
2021/11/13 09:27:21;;;;;;;9.23;6.60;;;8.60;99.90;;;;;;5031102;28;20478;-83
2021/11/13 09:29:46;;;;;;;9.23;6.55;;;8.70;99.90;;;;;;5030341;28;20065;-84
2021/11/13 09:32:12;;;;;;;9.48;6.35;;;8.70;99.90;;;;;;5030430;28;20033;-83
2021/11/13 09:34:37;;;;;;;7.35;5.50;;;8.80;99.90;;;;;;5031270;28;20454;-84
2021/11/13 09:37:03;;;;;;;10.13;6.05;;;8.80;99.80;;;;;;5031200;28;20029;-84
2021/11/13 09:39:29;;;;;;;8.15;6.20;;;8.80;99.60;;;;;;5030264;28;20043;-83
2021/11/13 09:41:57;;;;;;;8.20;6.15;;;8.90;99.80;;;;;;5030715;28;20402;-83
2021/11/13 09:44:23;;;;;;;9.32;5.93;;;8.90;99.80;;;;;;5030493;28;20525;-83
2021/11/13 09:46:51;;;;;;;8.13;5.93;;;8.90;99.90;;;;;;5031284;28;20022;-83
2021/11/13 09:49:17;;;;;;;8.30;5.75;;;9.00;99.40;;;;;;5029569;28;20033;-83
2021/11/13 09:51:44;;;;;;;6.57;5.07;;;9.10;99.30;;;;;;5030974;28;20040;-84
2021/11/13 09:54:10;;;;;;;7.45;5.38;;;9.10;99.30;;;;;;5030317;28;20048;-84
2021/11/13 09:56:36;;;;;;;6.93;5.22;;;9.20;99.30;;;;;;5030926;28;20029;-84
2021/11/13 09:59:03;;;;;;;8.95;6.47;;;9.20;99.20;;;;;;5028338;28;20041;-84
2021/11/13 10:01:28;;;;;;;7.55;5.60;;;9.20;99.20;;;;;;5029793;28;20022;-83
2021/11/13 10:03:54;;;;;;;7.15;5.47;;;9.30;99.10;;;;;;5029414;28;20040;-83
2021/11/13 10:06:19;;;;;;;8.43;6.03;;;9.30;98.30;;;;;;5030293;28;20029;-84
2021/11/13 10:08:49;;;;;;;6.03;5.18;;;9.30;98.70;;;;;;5029475;28;20116;-83
2021/11/13 10:11:22;;;;;;;7.43;5.70;;;9.40;98.90;;;;;;5028654;28;20029;-83
2021/11/13 10:13:53;;;;;;;5.75;4.63;;;9.50;98.70;;;;;;5030537;28;20029;-84
2021/11/13 10:16:36;;;;;;;7.72;5.43;;;9.60;98.50;;;;;;5029734;28;20021;-84
2021/11/13 10:19:03;;;;;;;;;;;9.70;98.30;;;;;;5028535;28;20077;-83
2021/11/13 10:21:30;;;;;;;6.20;4.47;;;9.80;97.90;;;;;;5028816;28;19996;-84
2021/11/13 10:24:04;;;;;;;6.15;4.68;;;9.80;98.00;;;;;;5028801;28;20080;-84
2021/11/13 10:26:35;;;;;;;8.20;5.47;;;9.90;97.80;;;;;;5028670;28;20091;-84
2021/11/13 10:29:22;;;;;;;6.60;5.43;;;10.00;97.90;;;;;;5017602;28;20041;-84
2021/11/13 10:32:09;;;;;;;6.28;4.97;;;10.10;97.60;;;;;;5029407;28;20382;-84
2021/11/13 10:34:44;;;;;;;5.85;4.68;;;10.10;97.30;;;;;;5029891;28;20109;-84
2021/11/13 10:37:22;;;;;;;6.88;4.75;;;10.20;97.30;;;;;;5029326;28;20029;-84
2021/11/13 10:39:48;;;;;;;5.35;4.43;;;10.30;97.30;;;;;;5029418;28;20037;-84
2021/11/13 10:42:20;;;;;;;5.68;4.25;;;10.30;97.30;;;;;;5029610;28;20433;-84
2021/11/13 10:44:46;;;;;;;6.80;4.75;;;10.40;97.30;;;;;;5030430;28;20041;-84
2021/11/13 10:47:20;;;;;;;5.53;4.47;;;10.40;97.50;;;;;;5029862;28;20021;-84
2021/11/13 10:49:48;;;;;;;7.18;5.28;;;10.40;97.50;;;;;;5027639;28;20052;-83
2021/11/13 10:52:15;;;;;;;6.00;4.47;;;10.50;97.40;;;;;;5029325;28;20087;-84
2021/11/13 10:54:48;;;;;;;6.80;4.80;;;10.40;97.00;;;;;;5028239;28;20026;-84
2021/11/13 10:57:23;;;;;;;9.07;4.63;;;10.50;97.20;;;;;;5029703;28;20026;-84
2021/11/13 10:59:49;;;;;;;6.72;4.72;;;10.60;97.10;;;;;;5028634;28;20105;-83
2021/11/13 11:02:16;;;;;;;5.82;4.88;;;10.60;96.70;;;;;;5028113;28;20850;-83
2021/11/13 11:04:45;;;;;;;7.07;4.93;;;10.60;96.80;;;;;;5028535;28;20025;-84
2021/11/13 11:07:15;;;;;;;5.13;4.15;;;10.60;96.60;;;;;;5030451;28;20052;-82
2021/11/13 11:09:42;;;;;;;6.80;5.35;;;10.60;96.70;;;;;;5029178;28;20037;-83
2021/11/13 11:12:16;;;;;;;6.63;4.97;;;10.60;97.00;;;;;;5027904;28;20071;-82
2021/11/13 11:14:44;;;;;;;7.80;5.45;;;10.70;96.70;;;;;;5029615;28;20029;-82
2021/11/13 11:17:16;;;;;;;7.13;5.28;;;10.70;96.60;;;;;;5027777;28;20492;-83
2021/11/13 11:19:48;;;;;;;6.37;4.83;;;10.80;96.60;;;;;;5028457;28;20021;-84
2021/11/13 11:22:20;;;;;;;6.90;5.18;;;10.90;96.20;;;;;;5027768;28;20268;-81
2021/11/13 11:24:54;;;;;;;7.05;5.07;;;11.00;96.30;;;;;;5029510;28;20045;-82
2021/11/13 11:27:34;;;;;;;6.47;4.60;;;11.10;96.60;;;;;;5029290;28;20041;-82
2021/11/13 11:30:09;;;;;;;6.15;5.25;;;11.20;96.50;;;;;;5028383;28;20026;-82
2021/11/13 11:32:48;;;;;;;7.03;5.47;;;11.20;96.40;;;;;;5027981;28;20125;-84
2021/11/13 11:35:16;;;;;;;7.35;5.35;;;11.20;96.40;;;;;;5028976;28;20029;-82
2021/11/13 11:37:54;;;;;;;6.07;4.63;;;11.20;96.30;;;;;;5028597;28;20409;-83
2021/11/13 11:40:26;;;;;;;9.25;4.95;;;11.20;96.30;;;;;;5027669;28;20551;-84
2021/11/13 11:42:52;;;;;;;7.15;4.43;;;11.20;96.40;;;;;;5029167;28;20079;-84
2021/11/13 11:45:21;;;;;;;6.78;5.07;;;11.20;96.40;;;;;;5031901;28;20445;-83
2021/11/13 11:47:52;;;;;;;6.28;4.65;;;11.20;96.50;;;;;;5032357;28;20361;-81
2021/11/13 11:50:26;;;;;;;6.82;4.65;;;11.20;96.10;;;;;;5031057;28;20030;-84
2021/11/13 11:52:57;;;;;;;5.88;4.72;;;11.20;96.40;;;;;;5031445;28;20025;-82
2021/11/13 11:55:23;;;;;;;6.50;4.10;;;11.30;96.70;;;;;;5032811;28;20026;-84
2021/11/13 11:58:19;;;;;;;8.25;4.97;;;11.30;96.40;;;;;;5032200;28;20044;-83
2021/11/13 12:00:49;;;;;;;7.25;4.55;;;11.40;96.10;;;;;;5029925;28;20490;-82
2021/11/13 12:03:27;;;;;;;5.65;4.50;;;11.40;96.50;;;;;;5033018;28;20021;-82
2021/11/13 12:05:55;;;;;;;5.65;3.97;;;11.40;96.70;;;;;;5030970;28;20032;-82
2021/11/13 12:08:26;;;;;;;6.22;4.55;;;11.40;96.20;;;;;;5031401;28;20033;-84
2021/11/13 12:10:53;;;;;;;6.15;4.07;;;11.60;96.20;;;;;;5030955;28;20513;-84
2021/11/13 12:13:30;;;;;;;5.45;4.55;;;11.50;95.90;;;;;;5031518;28;20029;-84
2021/11/13 12:16:01;;;;;;;5.82;3.83;;;11.60;96.20;;;;;;5032915;28;20025;-84
2021/11/13 12:18:33;;;;;;;6.60;4.28;;;11.70;96.20;;;;;;5032176;28;20478;-83
2021/11/13 12:21:02;;;;;;;;;;;11.80;96.20;;;;;;5032870;28;20056;-84
2021/11/13 12:23:35;;;;;;;7.63;4.65;;;11.90;95.90;;;;;;5032439;28;20293;-83
2021/11/13 12:26:13;;;;;;;5.05;3.95;;;12.00;95.90;;;;;;5032723;28;20030;-84
2021/11/13 12:28:47;;;;;;;8.90;4.07;;;12.10;95.60;;;;;;5031780;28;20375;-84
2021/11/13 12:31:22;;;;;;;5.32;4.35;;;12.20;95.60;;;;;;5031171;28;20033;-85
2021/11/13 12:33:51;;;;;;;4.85;3.95;;;12.20;95.30;;;;;;5031767;28;20053;-84
2021/11/13 12:36:23;;;;;;;4.75;3.85;;;12.40;95.00;;;;;;5036589;28;20021;-84
2021/11/13 12:39:07;;;;;;;5.45;4.40;;;12.30;95.20;;;;;;5031411;28;20496;-83
2021/11/13 12:41:35;;;;;;;8.13;4.03;;;12.40;94.90;;;;;;5031641;28;20068;-84
2021/11/13 12:44:15;;;;;;;6.43;4.35;;;12.40;94.80;;;;;;5032383;28;20049;-83
2021/11/13 12:46:50;;;;;;;6.32;3.88;;;12.50;94.90;;;;;;5032251;28;20033;-84
2021/11/13 12:49:18;;;;;;;5.35;3.90;;;12.50;94.70;;;;;;5031208;28;20183;-84